Time;durP1;ratioP1;P1;durP2;ratioP2;P2;SDS_P1;SDS_P2;PMS_P1;PMS_P2;Temp;Humidity;BMP_temperature;BMP_pressure;BME280_temperature;BME280_humidity;BME280_pressure;Samples;Min_cycle;Max_cycle;Signal;HPM_P1;HPM_P2
2023/06/16 00:01:22;;;;;;;8.27;4.37;;;;;;;17.17;100.00;101791.03;5066003;28;20196;-69
2023/06/16 00:03:51;;;;;;;5.70;4.10;;;;;;;17.15;100.00;101797.06;5065421;28;20209;-69
2023/06/16 00:06:19;;;;;;;5.83;4.37;;;;;;;17.13;100.00;101798.78;5065557;28;20751;-69
2023/06/16 00:08:47;;;;;;;4.93;4.10;;;;;;;17.09;100.00;101809.97;5064446;28;20564;-69
2023/06/16 00:11:16;;;;;;;4.60;4.00;;;;;;;17.09;100.00;101808.22;5066564;28;20184;-69
2023/06/16 00:13:44;;;;;;;4.63;3.63;;;;;;;17.10;100.00;101798.75;5066566;28;20208;-69
2023/06/16 00:16:10;;;;;;;6.37;3.70;;;;;;;17.09;100.00;101786.66;5067841;28;20192;-69
2023/06/16 00:18:40;;;;;;;7.03;4.10;;;;;;;17.11;100.00;101784.94;5064161;28;20197;-69
2023/06/16 00:21:09;;;;;;;4.83;4.00;;;;;;;17.11;100.00;101785.81;5066165;28;20230;-69
2023/06/16 00:23:34;;;;;;;4.03;3.63;;;;;;;17.12;100.00;101771.13;5065221;28;20240;-69
2023/06/16 00:25:59;;;;;;;5.33;3.87;;;;;;;17.10;100.00;101790.97;5064930;28;20658;-69
2023/06/16 00:28:25;;;;;;;6.53;4.40;;;;;;;17.10;100.00;101783.22;5065208;28;20280;-71
2023/06/16 00:30:50;;;;;;;5.10;3.97;;;;;;;17.10;100.00;101786.69;5067331;28;20203;-69
2023/06/16 00:33:17;;;;;;;5.17;4.10;;;;;;;17.11;100.00;101782.34;5066167;28;20696;-69
2023/06/16 00:35:43;;;;;;;5.40;4.10;;;;;;;17.12;100.00;101782.38;5063068;28;20192;-69
2023/06/16 00:38:09;;;;;;;6.33;4.13;;;;;;;17.10;100.00;101767.69;5063811;28;20193;-69
2023/06/16 00:40:34;;;;;;;6.13;3.97;;;;;;;17.06;100.00;101776.28;5067769;28;20193;-69
2023/06/16 00:43:02;;;;;;;5.10;4.03;;;;;;;17.10;100.00;101770.25;5063890;28;20189;-69
2023/06/16 00:45:29;;;;;;;6.30;4.10;;;;;;;17.07;100.00;101778.88;5049477;28;20213;-69
2023/06/16 00:47:55;;;;;;;5.23;4.10;;;;;;;17.08;100.00;101780.59;5066316;28;20200;-69
2023/06/16 00:50:21;;;;;;;6.43;4.33;;;;;;;17.08;100.00;101777.16;5065883;28;20200;-69
2023/06/16 00:52:47;;;;;;;7.27;4.20;;;;;;;17.08;100.00;101777.16;5065638;28;20198;-69
2023/06/16 00:55:12;;;;;;;5.90;3.83;;;;;;;17.06;100.00;101776.28;5066273;28;21053;-69
2023/06/16 00:57:39;;;;;;;4.73;3.77;;;;;;;17.04;100.00;101781.44;5067575;28;20287;-69
2023/06/16 01:00:07;;;;;;;6.13;4.03;;;;;;;17.07;100.00;101781.47;5065456;28;20646;-69
2023/06/16 01:02:34;;;;;;;5.37;3.53;;;;;;;17.07;100.00;101788.34;5066066;28;20204;-69
2023/06/16 01:05:00;;;;;;;5.70;3.77;;;;;;;17.04;100.00;101776.25;5065538;28;20204;-69
2023/06/16 01:07:48;;;;;;;5.10;4.03;;;;;;;17.08;100.00;101784.94;5063837;28;20640;-69
2023/06/16 01:10:21;;;;;;;4.43;4.03;;;;;;;17.05;100.00;101772.84;5031127;28;20213;-69
2023/06/16 01:13:12;;;;;;;5.97;4.03;;;;;;;17.01;100.00;101760.72;5066188;28;20199;-69
2023/06/16 01:15:43;;;;;;;9.17;4.30;;;;;;;16.99;100.00;101772.75;5057987;28;20220;-69
2023/06/16 01:18:10;;;;;;;6.00;4.30;;;;;;;17.00;100.00;101771.91;5063417;28;20189;-69
2023/06/16 01:20:51;;;;;;;5.93;3.70;;;;;;;17.03;100.00;101774.53;5063964;28;20197;-69
2023/06/16 01:23:47;;;;;;;5.97;3.77;;;;;;;17.02;100.00;101765.03;5064867;28;20569;-69
2023/06/16 01:26:13;;;;;;;8.03;4.33;;;;;;;17.04;100.00;101767.63;5046000;28;20213;-69
2023/06/16 01:28:42;;;;;;;4.10;3.70;;;;;;;17.01;100.00;101772.78;5065656;28;20189;-69
2023/06/16 01:31:15;;;;;;;6.23;4.30;;;;;;;17.01;100.00;101772.78;5066082;28;20254;-69
2023/06/16 01:33:43;;;;;;;6.33;4.00;;;;;;;17.02;100.00;101774.50;5063946;28;20589;-69
2023/06/16 01:36:09;;;;;;;4.50;4.10;;;;;;;16.97;100.00;101761.53;5073606;28;20235;-69
2023/06/16 01:38:35;;;;;;;7.23;4.20;;;;;;;16.89;100.00;101770.06;5080835;28;20272;-69
2023/06/16 01:41:03;;;;;;;8.27;4.53;;;;;;;16.93;100.00;101766.66;5066490;28;20240;-69
2023/06/16 01:43:30;;;;;;;5.97;4.33;;;;;;;16.87;100.00;101775.25;5078373;28;20205;-69
2023/06/16 01:45:58;;;;;;;5.60;4.30;;;;;;;16.89;100.00;101770.06;5068660;28;20209;-69
2023/06/16 01:48:24;;;;;;;5.70;3.90;;;;;;;16.86;100.00;101770.91;5078022;28;20211;-69
2023/06/16 01:50:50;;;;;;;5.73;4.50;;;;;;;16.81;100.00;101774.34;5060944;28;20239;-68
2023/06/16 01:53:16;;;;;;;4.33;3.93;;;;;;;16.80;100.00;101768.28;5068925;28;20188;-69
2023/06/16 01:55:49;;;;;;;9.17;4.70;;;;;;;16.75;100.00;101772.56;5081482;28;20696;-71
2023/06/16 01:58:17;;;;;;;6.03;4.27;;;;;;;16.74;100.00;101769.94;5070592;28;20751;-70
2023/06/16 02:00:54;;;;;;;5.77;4.30;;;;;;;16.74;100.00;101772.53;5062707;28;20193;-69
2023/06/16 02:03:25;;;;;;;6.07;4.63;;;;;;;16.71;100.00;101775.97;5067446;28;20201;-69
2023/06/16 02:05:52;;;;;;;4.90;4.37;;;;;;;16.63;100.00;101766.41;5070940;28;20341;-69
2023/06/16 02:08:23;;;;;;;4.30;3.90;;;;;;;16.57;100.00;101762.03;5070922;28;20185;-69
2023/06/16 02:10:50;;;;;;;5.00;4.50;;;;;;;16.64;100.00;101763.84;5068308;28;20201;-69
2023/06/16 02:13:15;;;;;;;7.07;4.37;;;;;;;16.65;100.00;101767.28;5069335;28;20307;-69
2023/06/16 02:15:41;;;;;;;5.10;4.40;;;;;;;16.64;100.00;101758.66;5070121;28;20276;-69
2023/06/16 02:18:09;;;;;;;5.23;4.30;;;;;;;16.70;100.00;101766.47;5062529;28;20279;-69
2023/06/16 02:20:36;;;;;;;4.90;4.50;;;;;;;16.73;100.00;101771.69;5067012;28;20202;-69
2023/06/16 02:23:01;;;;;;;6.77;4.07;;;;;;;16.73;100.00;101763.94;5069621;28;20201;-69
2023/06/16 02:25:27;;;;;;;5.80;4.47;;;;;;;16.74;100.00;101763.06;5068624;28;20220;-69
2023/06/16 02:27:52;;;;;;;5.13;4.60;;;;;;;16.73;100.00;101768.22;5069504;28;20213;-69
2023/06/16 02:30:18;;;;;;;7.50;4.33;;;;;;;16.70;100.00;101769.06;5070038;28;20668;-71
2023/06/16 02:32:44;;;;;;;5.67;3.83;;;;;;;16.68;100.00;101769.91;5068575;28;20618;-69
2023/06/16 02:35:09;;;;;;;6.50;4.57;;;;;;;16.65;100.00;101762.09;5065183;28;20328;-69
2023/06/16 02:37:36;;;;;;;4.80;4.33;;;;;;;16.64;100.00;101756.09;5067524;28;20189;-69
2023/06/16 02:40:05;;;;;;;6.50;4.37;;;;;;;16.69;100.00;101761.28;5068316;28;20197;-69
2023/06/16 02:42:32;;;;;;;7.50;4.60;;;;;;;16.69;100.00;101759.56;5063377;28;20284;-69
2023/06/16 02:44:58;;;;;;;4.77;4.23;;;;;;;16.66;100.00;101759.53;5065687;28;20340;-69
2023/06/16 02:47:23;;;;;;;5.53;4.63;;;;;;;16.65;100.00;101751.75;5068689;28;20434;-69
2023/06/16 02:49:50;;;;;;;6.77;4.47;;;;;;;16.63;100.00;101753.47;5067751;28;20846;-69
2023/06/16 02:52:16;;;;;;;5.17;4.47;;;;;;;16.60;100.00;101756.03;5067891;28;20201;-69
2023/06/16 02:54:42;;;;;;;6.30;4.27;;;;;;;16.58;100.00;101760.31;5064124;28;20208;-69
2023/06/16 02:57:11;;;;;;;5.40;4.47;;;;;;;16.57;100.00;101766.34;5066358;28;20197;-69
2023/06/16 02:59:43;;;;;;;6.67;4.83;;;;;;;16.56;100.00;101762.00;5068701;28;20262;-69
2023/06/16 03:02:09;;;;;;;7.43;4.93;;;;;;;16.58;100.00;101760.31;5065421;28;20674;-69
2023/06/16 03:04:58;;;;;;;5.50;4.97;;;;;;;16.55;100.00;101773.22;5082223;28;20224;-69
2023/06/16 03:07:31;;;;;;;5.63;4.93;;;;;;;16.57;100.00;101772.38;5068176;28;20213;-69
2023/06/16 03:10:00;;;;;;;6.67;4.03;;;;;;;16.61;100.00;101762.91;5055990;28;20675;-69
2023/06/16 03:12:31;;;;;;;6.33;4.40;;;;;;;16.65;100.00;101762.97;5061576;28;20193;-69
2023/06/16 03:15:03;;;;;;;5.40;4.90;;;;;;;16.65;100.00;101762.97;5058004;28;20366;-69
2023/06/16 03:17:30;;;;;;;6.90;5.00;;;;;;;16.67;100.00;101763.84;5066531;28;20581;-69
2023/06/16 03:19:55;;;;;;;7.00;5.00;;;;;;;16.60;100.00;101754.31;5066801;28;20205;-69
2023/06/16 03:22:41;;;;;;;9.03;5.10;;;;;;;16.59;100.00;101755.19;5067796;28;20654;-69
2023/06/16 03:25:07;;;;;;;7.77;5.50;;;;;;;16.57;100.00;101749.09;5047703;28;20256;-69
2023/06/16 03:27:41;;;;;;;5.97;5.37;;;;;;;16.58;100.00;101750.81;5066508;28;20224;-70
2023/06/16 03:30:08;;;;;;;7.13;5.53;;;;;;;16.57;100.00;101756.88;5067424;28;20240;-69
2023/06/16 03:32:54;;;;;;;6.13;5.30;;;;;;;16.59;100.00;101751.72;5067159;28;20246;-70
2023/06/16 03:35:20;;;;;;;6.10;5.43;;;;;;;16.60;100.00;101756.91;5065829;28;20209;-70
2023/06/16 03:37:47;;;;;;;6.37;5.30;;;;;;;16.65;100.00;101757.81;5065982;28;20596;-70
2023/06/16 03:40:13;;;;;;;8.23;5.80;;;;;;;16.62;100.00;101754.34;5067458;28;20922;-69
2023/06/16 03:42:38;;;;;;;8.00;5.43;;;;;;;16.60;100.00;101748.25;5067510;28;20212;-70
2023/06/16 03:45:06;;;;;;;7.53;5.73;;;;;;;16.56;100.00;101756.84;5063586;28;20244;-70
2023/06/16 03:47:31;;;;;;;8.80;6.23;;;;;;;16.54;100.00;101754.22;5067009;28;20854;-69
2023/06/16 03:49:59;;;;;;;7.57;6.10;;;;;;;16.54;100.00;101758.56;5067158;28;20193;-70
2023/06/16 03:52:25;;;;;;;9.97;6.07;;;;;;;16.39;100.00;101761.81;5053785;28;20185;-69
2023/06/16 03:54:51;;;;;;;7.73;6.30;;;;;;;16.38;100.00;101762.66;5066553;28;20217;-70
2023/06/16 03:57:17;;;;;;;8.40;6.20;;;;;;;16.44;100.00;101762.75;5066898;28;20189;-69
2023/06/16 03:59:43;;;;;;;7.33;5.87;;;;;;;16.49;100.00;101757.66;5069103;28;20737;-69
2023/06/16 04:02:09;;;;;;;9.83;6.90;;;;;;;16.41;100.00;101761.88;5066644;28;20192;-69
2023/06/16 04:04:43;;;;;;;12.00;7.43;;;;;;;16.40;100.00;101742.88;5066668;28;20213;-70
2023/06/16 04:07:11;;;;;;;10.53;6.87;;;;;;;16.22;100.00;101745.28;5066383;28;20208;-70
2023/06/16 04:09:36;;;;;;;9.07;6.97;;;;;;;16.28;100.00;101739.28;5067607;28;20192;-69
2023/06/16 04:12:02;;;;;;;11.07;7.30;;;;;;;16.23;100.00;101735.78;5066824;28;20599;-70
2023/06/16 04:14:29;;;;;;;9.97;6.90;;;;;;;15.98;100.00;101729.47;5061276;28;20694;-69
2023/06/16 04:16:55;;;;;;;10.20;7.17;;;;;;;15.80;100.00;101720.66;5066746;28;20231;-69
2023/06/16 04:19:21;;;;;;;10.37;6.83;;;;;;;15.85;100.00;101724.16;5065241;28;20188;-69
2023/06/16 04:21:47;;;;;;;9.00;7.37;;;;;;;15.83;100.00;101733.56;5066808;28;20216;-69
2023/06/16 04:24:14;;;;;;;8.03;7.23;;;;;;;15.84;100.00;101730.16;5063358;28;20209;-69
2023/06/16 04:26:43;;;;;;;11.23;7.60;;;;;;;15.88;100.00;101732.78;5064877;28;20288;-69
2023/06/16 04:29:14;;;;;;;12.17;8.50;;;;;;;15.85;100.00;101722.44;5082037;28;20192;-69
2023/06/16 04:31:42;;;;;;;11.37;8.10;;;;;;;15.76;100.00;101734.38;5066544;28;21015;-70
2023/06/16 04:34:10;;;;;;;12.77;8.37;;;;;;;15.72;100.00;101733.47;5063050;28;20714;-69
2023/06/16 04:36:44;;;;;;;9.63;8.63;;;;;;;15.81;100.00;101728.41;5064657;28;20188;-70
2023/06/16 04:39:30;;;;;;;10.37;8.07;;;;;;;15.93;100.00;101720.78;5064745;28;20676;-70
2023/06/16 04:41:56;;;;;;;9.37;7.83;;;;;;;15.97;100.00;101724.31;5066312;28;20251;-70
2023/06/16 04:44:23;;;;;;;8.70;7.13;;;;;;;15.99;100.00;101720.00;5066047;28;20213;-69
2023/06/16 04:46:50;;;;;;;11.40;7.70;;;;;;;15.92;100.00;101715.59;5066694;28;20252;-69
2023/06/16 04:49:19;;;;;;;9.43;7.80;;;;;;;15.91;100.00;101713.88;5066032;28;20614;-69
2023/06/16 04:51:45;;;;;;;10.37;8.47;;;;;;;15.90;100.00;101714.75;5066590;28;20694;-69
2023/06/16 04:54:11;;;;;;;8.23;7.10;;;;;;;15.99;100.00;101717.44;5066165;28;20235;-69
2023/06/16 04:56:39;;;;;;;9.07;7.20;;;;;;;16.11;100.00;101720.16;5064344;28;20545;-70
2023/06/16 04:59:05;;;;;;;8.60;7.13;;;;;;;16.18;100.00;101722.81;5066611;28;20197;-69
2023/06/16 05:01:31;;;;;;;9.87;8.00;;;;;;;16.28;100.00;101726.34;5068049;28;20185;-69
2023/06/16 05:03:56;;;;;;;8.90;7.53;;;;;;;16.34;100.00;101721.28;5064206;28;20219;-69
2023/06/16 05:06:22;;;;;;;11.33;7.47;;;;;;;16.34;100.00;101726.44;5067549;28;20201;-70
2023/06/16 05:08:47;;;;;;;11.17;7.53;;;;;;;16.35;100.00;101729.00;5066650;28;20189;-70
2023/06/16 05:11:13;;;;;;;7.57;6.77;;;;;;;16.39;100.00;101735.94;5064708;28;20193;-69
2023/06/16 05:13:38;;;;;;;10.97;7.53;;;;;;;16.48;100.00;101741.25;5066311;28;20603;-70
2023/06/16 05:16:05;;;;;;;9.33;7.27;;;;;;;16.55;100.00;101750.81;5066732;28;20200;-69
2023/06/16 05:18:31;;;;;;;8.40;7.17;;;;;;;16.64;100.00;101750.03;5069956;28;20193;-69
2023/06/16 05:20:56;;;;;;;9.33;6.63;;;;;;;16.65;100.00;101742.28;5067756;28;20188;-69
2023/06/16 05:23:21;;;;;;;8.23;7.43;;;;;;;16.70;100.00;101744.91;5070052;28;20185;-69
2023/06/16 05:25:47;;;;;;;9.77;6.80;;;;;;;16.78;100.00;101748.44;5069949;28;20704;-70
2023/06/16 05:28:12;;;;;;;7.50;6.50;;;;;;;16.81;100.00;101745.88;5070194;28;20285;-69
2023/06/16 05:30:38;;;;;;;10.50;7.33;;;;;;;16.84;100.00;101744.19;5068749;28;20193;-69
2023/06/16 05:33:04;;;;;;;10.30;8.43;;;;;;;16.83;100.00;101739.88;5052745;28;20763;-69
2023/06/16 05:35:30;;;;;;;11.27;8.03;;;;;;;16.89;100.00;101746.78;5069238;28;20248;-69
2023/06/16 05:37:55;;;;;;;7.67;6.77;;;;;;;16.92;100.00;101745.13;5068209;28;20268;-70
2023/06/16 05:40:21;;;;;;;8.17;7.20;;;;;;;16.82;100.00;101732.97;5069842;28;20191;-69
2023/06/16 05:42:48;;;;;;;11.33;7.30;;;;;;;16.79;100.00;101735.50;5069937;28;20679;-69
2023/06/16 05:45:14;;;;;;;9.27;6.83;;;;;;;16.75;100.00;101731.16;5069087;28;20295;-69
2023/06/16 05:47:40;;;;;;;11.20;6.80;;;;;;;16.80;100.00;101726.91;5068109;28;20189;-69
2023/06/16 05:50:07;;;;;;;7.93;6.93;;;;;;;16.80;100.00;101726.91;5067861;28;20193;-69
2023/06/16 05:52:34;;;;;;;7.40;6.33;;;;;;;16.73;100.00;101724.25;5069346;28;20181;-69
2023/06/16 05:55:00;;;;;;;9.17;6.87;;;;;;;16.72;100.00;101723.38;5068532;28;20259;-70
2023/06/16 05:57:40;;;;;;;8.43;7.40;;;;;;;16.81;100.00;101715.69;5069218;28;20196;-69
2023/06/16 06:00:07;;;;;;;8.33;6.50;;;;;;;16.77;100.00;101713.06;5069368;28;20195;-69
2023/06/16 06:02:38;;;;;;;7.73;6.03;;;;;;;16.75;100.00;101707.00;5069156;28;20273;-69
2023/06/16 06:05:05;;;;;;;7.77;6.93;;;;;;;16.68;100.00;101715.59;5071353;28;20224;-69
2023/06/16 06:07:31;;;;;;;11.63;7.00;;;;;;;16.60;100.00;101715.53;5069388;28;20240;-69
2023/06/16 06:09:57;;;;;;;9.70;6.83;;;;;;;16.79;100.00;101704.47;5069312;28;20229;-69
2023/06/16 06:12:22;;;;;;;8.13;7.07;;;;;;;16.76;100.00;101703.59;5067753;28;20276;-69
2023/06/16 06:14:48;;;;;;;8.73;6.80;;;;;;;16.77;100.00;101706.16;5054513;28;20208;-69
2023/06/16 06:17:13;;;;;;;7.77;6.77;;;;;;;16.80;100.00;101698.44;5048693;28;20229;-70
2023/06/16 06:19:39;;;;;;;8.27;7.20;;;;;;;16.84;100.00;101704.50;5068353;28;20216;-69
2023/06/16 06:22:07;;;;;;;8.93;7.37;;;;;;;16.79;100.00;101707.06;5066574;28;20276;-70
2023/06/16 06:24:33;;;;;;;8.93;6.83;;;;;;;16.86;100.00;101713.16;5068685;28;20209;-69
2023/06/16 06:27:00;;;;;;;8.80;7.30;;;;;;;16.86;100.00;101711.41;5068224;28;20224;-69
2023/06/16 06:29:26;;;;;;;8.50;7.17;;;;;;;16.96;100.00;101710.66;5079828;28;20197;-69
2023/06/16 06:31:51;;;;;;;10.73;7.53;;;;;;;17.10;100.00;101708.16;5069962;28;20196;-69
2023/06/16 06:34:17;;;;;;;10.23;7.47;;;;;;;17.26;100.00;101716.03;5068082;28;20220;-71
2023/06/16 06:36:42;;;;;;;9.20;7.10;;;;;;;17.27;100.00;101722.06;5064747;28;20815;-69
2023/06/16 06:39:11;;;;;;;9.60;7.30;;;;;;;17.33;100.00;101714.34;5067901;28;20243;-70
2023/06/16 06:41:40;;;;;;;9.30;7.13;;;;;;;17.41;100.00;101716.13;5070597;28;20224;-70
2023/06/16 06:44:12;;;;;;;8.30;7.00;;;;;;;17.51;100.00;101725.72;5068979;28;20266;-69
2023/06/16 06:46:47;;;;;;;8.60;7.20;;;;;;;17.55;100.00;101722.25;5065050;28;20224;-70
2023/06/16 06:49:12;;;;;;;7.93;6.77;;;;;;;17.63;100.00;101728.34;5083172;28;20596;-70
2023/06/16 06:51:38;;;;;;;12.83;8.03;;;;;;;17.62;100.00;101728.34;5067976;28;20180;-70
2023/06/16 06:54:03;;;;;;;10.23;7.73;;;;;;;17.65;100.00;101725.78;5068341;28;20213;-69
2023/06/16 06:56:29;;;;;;;11.33;7.10;;;;;;;17.67;100.00;101724.03;5066654;28;20567;-68
2023/06/16 06:58:54;;;;;;;10.57;7.50;;;;;;;17.69;100.00;101719.75;5069669;28;20189;-70
2023/06/16 07:01:20;;;;;;;10.17;7.90;;;;;;;17.68;100.00;101715.44;5067905;28;20576;-70
2023/06/16 07:03:45;;;;;;;10.30;8.00;;;;;;;17.72;100.00;101714.56;5068100;28;20877;-69
2023/06/16 07:06:11;;;;;;;10.53;8.87;;;;;;;17.65;100.00;101720.59;5063831;28;20220;-69
2023/06/16 07:08:36;;;;;;;11.83;7.97;;;;;;;17.62;100.00;101713.66;5069827;28;20193;-68
2023/06/16 07:11:02;;;;;;;9.93;8.67;;;;;;;17.67;100.00;101711.09;5069498;28;20193;-69
2023/06/16 07:13:27;;;;;;;11.03;8.37;;;;;;;17.78;100.00;101714.59;5069620;28;20212;-70
2023/06/16 07:15:53;;;;;;;10.03;7.67;;;;;;;17.80;100.00;101726.72;5067752;28;20199;-69
2023/06/16 07:18:18;;;;;;;9.07;8.00;;;;;;;17.95;100.00;101720.69;5067477;28;20287;-69
2023/06/16 07:20:44;;;;;;;11.30;8.43;;;;;;;17.91;100.00;101717.25;5065766;28;20613;-70
2023/06/16 07:23:09;;;;;;;10.17;8.20;;;;;;;18.02;100.00;101725.94;5059522;28;20288;-69
2023/06/16 07:25:36;;;;;;;11.63;8.43;;;;;;;18.05;100.00;101728.50;5062238;28;20196;-69
2023/06/16 07:28:07;;;;;;;10.33;8.33;;;;;;;18.11;100.00;101732.88;5065602;28;20247;-70
2023/06/16 07:30:32;;;;;;;9.93;8.57;;;;;;;18.19;100.00;101739.78;5064422;28;20558;-69
2023/06/16 07:32:58;;;;;;;11.13;8.17;;;;;;;18.32;100.00;101744.16;5066803;28;20208;-71
2023/06/16 07:35:23;;;;;;;9.87;8.63;;;;;;;18.35;100.00;101740.72;5065437;28;20281;-70
2023/06/16 07:37:49;;;;;;;11.40;8.73;;;;;;;18.46;100.00;101750.28;5067739;28;20220;-70
2023/06/16 07:40:14;;;;;;;9.43;8.23;;;;;;;18.37;100.00;101749.41;5066101;28;20201;-69
2023/06/16 07:42:42;;;;;;;10.50;8.20;;;;;;;18.51;100.00;101751.13;5067977;28;20196;-69
2023/06/16 07:45:08;;;;;;;9.00;8.10;;;;;;;18.44;100.00;101748.53;5066659;28;20259;-69
2023/06/16 07:47:33;;;;;;;10.63;8.70;;;;;;;18.56;100.00;101748.56;5067156;28;20627;-69
2023/06/16 07:49:59;;;;;;;9.40;8.30;;;;;;;18.53;100.00;101748.56;5066112;28;20193;-69
2023/06/16 07:52:25;;;;;;;10.80;8.07;;;;;;;18.64;100.00;101749.41;5067549;28;20188;-69
2023/06/16 07:54:50;;;;;;;9.80;7.97;;;;;;;18.86;100.00;101739.06;5067508;28;20221;-69
2023/06/16 07:57:16;;;;;;;9.10;8.20;;;;;;;19.11;100.00;101733.00;5065106;28;20204;-69
2023/06/16 07:59:41;;;;;;;11.57;8.90;;;;;;;19.26;100.00;101737.34;5067975;28;20204;-69
2023/06/16 08:02:07;;;;;;;9.60;8.17;;;;;;;19.60;100.00;101723.38;5066320;28;20201;-70
2023/06/16 08:04:32;;;;;;;10.00;8.87;;;;;;;19.26;100.00;101724.34;5065586;28;20211;-69
2023/06/16 08:06:58;;;;;;;10.23;8.07;;;;;;;19.60;100.00;101716.47;5066726;28;20650;-69
2023/06/16 08:09:23;;;;;;;11.17;8.97;;;;;;;19.42;100.00;101720.84;5061373;28;20311;-70
2023/06/16 08:11:50;;;;;;;10.13;8.30;;;;;;;19.26;100.00;101706.16;5059163;28;20202;-69
2023/06/16 08:14:16;;;;;;;10.33;8.47;;;;;;;19.49;100.00;101691.38;5062765;28;20209;-69
2023/06/16 08:16:42;;;;;;;10.43;9.33;;;;;;;19.49;100.00;101691.38;5058704;28;20255;-70
2023/06/16 08:19:08;;;;;;;12.90;9.43;;;;;;;19.45;100.00;101700.94;5059509;28;20243;-70
2023/06/16 08:21:34;;;;;;;11.00;9.50;;;;;;;19.58;100.00;101689.59;5065560;28;20873;-70
2023/06/16 08:24:01;;;;;;;11.47;9.13;;;;;;;19.54;100.00;101676.66;5049052;28;20705;-70
2023/06/16 08:26:27;;;;;;;11.63;10.40;;;;;;;19.40;100.00;101697.47;5059382;28;20592;-70
2023/06/16 08:28:53;;;;;;;12.63;9.80;;;;;;;19.37;100.00;101694.00;5060243;28;20608;-70
2023/06/16 08:31:18;;;;;;;10.43;9.33;;;;;;;19.48;100.00;101687.06;5063220;28;20198;-70
2023/06/16 08:33:44;;;;;;;12.20;9.17;;;;;;;19.53;100.00;101680.97;5061428;28;20307;-71
2023/06/16 08:36:09;;;;;;;10.30;9.30;;;;;;;19.47;100.00;101680.13;5057118;28;20189;-70
2023/06/16 08:38:36;;;;;;;11.20;9.33;;;;;;;19.44;100.00;101693.13;5054463;28;20943;-72
2023/06/16 08:41:05;;;;;;;11.10;9.97;;;;;;;19.35;100.00;101688.81;5060156;28;20208;-71
2023/06/16 08:43:35;;;;;;;11.23;10.03;;;;;;;19.23;100.00;101704.44;5057882;28;20255;-71
2023/06/16 08:46:02;;;;;;;13.50;10.00;;;;;;;19.33;100.00;101690.56;5057329;28;20307;-70
2023/06/16 08:48:28;;;;;;;12.03;10.57;;;;;;;19.24;100.00;101695.78;5062159;28;20268;-71
2023/06/16 08:50:58;;;;;;;11.10;9.97;;;;;;;19.27;100.00;101682.78;5061055;28;20774;-70
2023/06/16 08:53:25;;;;;;;9.83;8.83;;;;;;;19.38;100.00;101683.63;5060610;28;20207;-71
2023/06/16 08:55:51;;;;;;;13.13;9.10;;;;;;;19.43;100.00;101671.47;5057421;28;20193;-71
2023/06/16 08:58:20;;;;;;;14.70;9.27;;;;;;;19.32;100.00;101685.38;5062161;28;20730;-71
2023/06/16 09:00:46;;;;;;;10.23;8.70;;;;;;;19.41;100.00;101683.63;5062374;28;20201;-71
2023/06/16 09:03:13;;;;;;;12.37;9.30;;;;;;;19.26;100.00;101688.00;5047667;28;20259;-70
2023/06/16 09:05:38;;;;;;;10.07;8.70;;;;;;;19.19;100.00;101688.81;5062989;28;20192;-71
2023/06/16 09:08:05;;;;;;;13.30;8.80;;;;;;;19.20;100.00;101672.41;5057794;28;20246;-71
2023/06/16 09:10:32;;;;;;;10.10;9.07;;;;;;;19.16;100.00;101665.47;5057522;28;20189;-72
2023/06/16 09:13:00;;;;;;;11.73;9.23;;;;;;;19.11;100.00;101662.03;5056912;28;20239;-72
2023/06/16 09:15:25;;;;;;;9.20;7.87;;;;;;;19.22;100.00;101653.38;5053991;28;20967;-72
2023/06/16 09:17:52;;;;;;;9.63;8.27;;;;;;;19.28;100.00;101644.69;5061066;28;20231;-71
2023/06/16 09:20:19;;;;;;;10.27;8.30;;;;;;;19.27;100.00;101646.44;5059626;28;20209;-71
2023/06/16 09:22:49;;;;;;;12.83;9.00;;;;;;;19.30;100.00;101648.16;5058075;28;20208;-71
2023/06/16 09:25:16;;;;;;;12.50;9.20;;;;;;;19.33;100.00;101640.34;5065144;28;20224;-71
2023/06/16 09:27:45;;;;;;;10.57;9.47;;;;;;;19.42;100.00;101643.78;5056807;28;20312;-72
2023/06/16 09:30:16;;;;;;;11.37;9.37;;;;;;;19.51;100.00;101642.88;5060458;28;20196;-70
2023/06/16 09:32:42;;;;;;;10.77;9.47;;;;;;;19.51;100.00;101640.25;5057974;28;20695;-70
2023/06/16 09:35:21;;;;;;;12.87;10.10;;;;;;;19.56;100.00;101626.38;5059895;28;20305;-70
2023/06/16 09:37:48;;;;;;;10.93;9.83;;;;;;;19.67;100.00;101642.78;5057032;28;20274;-70
2023/06/16 09:40:15;;;;;;;9.70;8.73;;;;;;;19.77;100.00;101639.25;5060527;28;20212;-72
2023/06/16 09:42:42;;;;;;;13.50;10.53;;;;;;;19.77;100.00;101630.63;5057791;28;20189;-72
2023/06/16 09:45:18;;;;;;;12.10;9.53;;;;;;;19.71;100.00;101633.25;5062912;28;20248;-71
2023/06/16 09:47:45;;;;;;;10.80;9.70;;;;;;;19.76;100.00;101631.50;5057485;28;20662;-70
2023/06/16 09:50:19;;;;;;;14.80;10.13;;;;;;;19.77;100.00;101625.41;5055734;28;20480;-70
2023/06/16 09:52:47;;;;;;;11.97;10.30;;;;;;;19.74;100.00;101631.50;5061214;28;20193;-70
2023/06/16 09:55:13;;;;;;;12.20;10.67;;;;;;;19.81;100.00;101632.34;5061604;28;20217;-70
2023/06/16 09:57:41;;;;;;;12.40;10.40;;;;;;;19.94;100.00;101621.84;5063194;28;20193;-70
2023/06/16 10:00:13;;;;;;;13.33;11.00;;;;;;;20.08;100.00;101608.78;5058665;28;20193;-70
2023/06/16 10:02:45;;;;;;;15.13;11.10;;;;;;;20.17;100.00;101622.59;5061308;28;20203;-70
2023/06/16 10:05:14;;;;;;;11.67;10.57;;;;;;;20.47;100.00;101622.34;5061360;28;20275;-71
2023/06/16 10:07:43;;;;;;;13.13;10.67;;;;;;;20.65;100.00;101613.50;5060728;28;20217;-70
2023/06/16 10:10:10;;;;;;;11.73;10.50;;;;;;;20.76;100.00;101614.25;5068466;28;20276;-70
2023/06/16 10:12:37;;;;;;;11.37;10.00;;;;;;;20.83;100.00;101605.53;5062774;28;20216;-70
2023/06/16 10:15:03;;;;;;;11.33;10.03;;;;;;;20.91;100.00;101601.13;5065514;28;20220;-70
2023/06/16 10:17:31;;;;;;;11.77;10.47;;;;;;;21.04;100.00;101606.19;5061213;28;20851;-70
2023/06/16 10:19:56;;;;;;;13.60;10.23;;;;;;;21.18;100.00;101598.19;5064894;28;20607;-70
2023/06/16 10:22:22;;;;;;;12.60;10.00;;;;;;;21.31;100.00;101612.81;5060988;28;20288;-70
2023/06/16 10:24:48;;;;;;;10.93;9.70;;;;;;;21.34;100.00;101571.09;5051979;28;20214;-70
2023/06/16 10:27:14;;;;;;;10.90;9.13;;;;;;;21.27;100.00;101564.22;5063373;28;20234;-70
2023/06/16 10:29:41;;;;;;;11.13;9.17;;;;;;;21.28;100.00;101560.75;5064785;28;20280;-70
2023/06/16 10:32:07;;;;;;;10.90;9.10;;;;;;;21.25;100.00;101592.06;5066086;28;20216;-71
2023/06/16 10:34:56;;;;;;;10.43;9.43;;;;;;;21.20;100.00;101599.06;5061988;28;20287;-70
2023/06/16 10:37:23;;;;;;;9.70;8.67;;;;;;;21.17;100.00;101592.16;5062213;28;20214;-70
2023/06/16 10:39:48;;;;;;;10.50;8.17;;;;;;;21.08;100.00;101614.81;5062789;28;20305;-70
2023/06/16 10:42:15;;;;;;;9.33;8.53;;;;;;;21.10;100.00;101607.88;5066738;28;20279;-70
2023/06/16 10:44:43;;;;;;;10.83;8.40;;;;;;;21.08;100.00;101618.31;5065850;28;20292;-70
2023/06/16 10:47:08;;;;;;;10.80;8.70;;;;;;;21.13;100.00;101632.13;5063686;28;20791;-70
2023/06/16 10:49:51;;;;;;;8.63;7.73;;;;;;;21.15;100.00;101617.34;5062905;28;20193;-70
2023/06/16 10:52:17;;;;;;;8.40;7.60;;;;;;;21.15;100.00;101621.72;5055411;28;20200;-71
2023/06/16 10:54:45;;;;;;;9.00;8.10;;;;;;;21.21;100.00;101630.31;5058588;28;20210;-70
2023/06/16 10:57:12;;;;;;;9.07;7.13;;;;;;;21.22;100.00;101618.13;5051398;28;20199;-70
2023/06/16 10:59:56;;;;;;;10.53;8.30;;;;;;;21.20;100.00;101602.53;5064176;28;20201;-70
2023/06/16 11:02:27;;;;;;;9.60;7.90;;;;;;;21.19;100.00;101626.00;5060479;28;20324;-70
2023/06/16 11:05:08;;;;;;;9.23;8.00;;;;;;;21.28;100.00;101629.34;5064807;28;20220;-70
2023/06/16 11:08:01;;;;;;;11.10;7.70;;;;;;;21.40;100.00;101600.53;5074564;28;20241;-70
2023/06/16 11:10:27;;;;;;;8.03;7.27;;;;;;;21.55;100.00;101602.06;5062682;28;20250;-70
2023/06/16 11:12:52;;;;;;;10.50;6.93;;;;;;;21.61;100.00;101602.84;5061118;28;20194;-70
2023/06/16 11:15:21;;;;;;;7.70;6.90;;;;;;;21.61;100.00;101609.84;5059673;28;20560;-70
2023/06/16 11:17:50;;;;;;;8.60;6.90;;;;;;;21.67;100.00;101612.34;5062856;28;20197;-71